Time;durP1;ratioP1;P1;durP2;ratioP2;P2;SDS_P1;SDS_P2;PMS_P1;PMS_P2;Temp;Humidity;BMP_temperature;BMP_pressure;BME280_temperature;BME280_humidity;BME280_pressure;Samples;Min_cycle;Max_cycle;Signal;HPM_P1;HPM_P2
2023/06/24 10:02:24;;;;;;;360.30;41.95;;;28.10;83.70;;;;;;5107446;27;21156;-74
2023/06/24 10:04:52;;;;;;;7.85;6.10;;;28.00;85.20;;;;;;5106705;28;20024;-71
2023/06/24 10:07:18;;;;;;;9.55;7.95;;;30.20;89.10;;;;;;5103007;28;20508;-71
2023/06/24 10:09:44;;;;;;;40.85;8.48;;;34.40;99.90;;;;;;5092062;28;20021;-72
2023/06/24 10:12:13;;;;;;;14.07;4.15;;;33.10;99.90;;;;;;5096424;28;20027;-72
2023/06/24 10:14:39;;;;;;;19.45;5.45;;;32.30;99.90;;;;;;5091700;28;20035;-72
2023/06/24 10:17:05;;;;;;;19.05;4.50;;;31.70;99.90;;;;;;5079935;28;20028;-72
2023/06/24 10:19:41;;;;;;;35.00;5.45;;;31.30;99.90;;;;;;5094144;28;20021;-72
2023/06/24 10:22:14;;;;;;;11.93;4.25;;;30.90;99.90;;;;;;5096594;28;20091;-72
2023/06/24 10:24:42;;;;;;;26.05;5.22;;;30.50;99.90;;;;;;5091491;28;20343;-71
2023/06/24 10:27:24;;;;;;;32.53;16.80;;;30.20;99.90;;;;;;5095619;28;20021;-72
2023/06/24 10:29:53;;;;;;;13.20;7.72;;;32.40;99.90;;;;;;5093247;28;20020;-72
2023/06/24 10:32:21;;;;;;;13.90;9.65;;;31.70;99.90;;;;;;5095531;28;20021;-71
2023/06/24 10:34:53;;;;;;;10.25;5.50;;;31.30;99.90;;;;;;5090919;28;20040;-72
2023/06/24 10:37:25;;;;;;;11.90;6.85;;;31.00;99.90;;;;;;5097759;28;20023;-72
2023/06/24 10:39:58;;;;;;;5.13;4.20;;;30.70;99.90;;;;;;5094009;28;20765;-72
2023/06/24 10:42:33;;;;;;;6.40;4.38;;;30.40;99.90;;;;;;5100002;28;20105;-72
2023/06/24 10:45:03;;;;;;;7.57;3.83;;;30.30;99.90;;;;;;5093927;28;20024;-72
2023/06/24 10:47:30;;;;;;;3.40;3.17;;;30.10;99.90;;;;;;5093360;28;20028;-71
2023/06/24 10:49:56;;;;;;;6.40;4.75;;;30.10;99.90;;;;;;5106479;28;20077;-71
2023/06/24 10:52:26;;;;;;;6.32;3.88;;;32.60;99.90;;;;;;5099257;28;20069;-71
2023/06/24 10:54:53;;;;;;;8.88;3.80;;;32.00;99.90;;;;;;5092927;28;20066;-74
2023/06/24 10:57:26;;;;;;;3.20;2.92;;;31.70;99.90;;;;;;5108109;28;20542;-74
2023/06/24 10:59:56;;;;;;;3.85;3.55;;;31.50;99.90;;;;;;5111786;28;20023;-73
2023/06/24 11:02:24;;;;;;;7.50;3.60;;;31.30;99.90;;;;;;5111469;28;20055;-73
2023/06/24 11:04:55;;;;;;;15.18;4.15;;;31.10;99.90;;;;;;5101159;28;20024;-73
2023/06/24 11:07:24;;;;;;;5.43;3.35;;;31.20;99.90;;;;;;5102717;28;20538;-74
2023/06/24 11:10:13;;;;;;;5.45;3.00;;;32.40;99.90;;;;;;5091878;28;20035;-74
2023/06/24 11:12:40;;;;;;;3.67;3.38;;;31.90;99.90;;;;;;5085024;28;20032;-74
2023/06/24 11:15:08;;;;;;;8.68;3.78;;;31.60;99.90;;;;;;5090146;28;20024;-74
2023/06/24 11:17:35;;;;;;;4.03;2.95;;;31.30;99.90;;;;;;5092941;28;20032;-74
2023/06/24 11:20:02;;;;;;;6.35;3.60;;;31.30;99.90;;;;;;5078746;28;20032;-74
2023/06/24 11:22:28;;;;;;;9.48;3.40;;;31.10;99.90;;;;;;5091396;28;20077;-74
2023/06/24 11:24:54;;;;;;;10.90;3.33;;;31.10;99.90;;;;;;5088519;28;20427;-74
2023/06/24 11:27:29;;;;;;;4.53;3.30;;;31.10;99.90;;;;;;5092754;28;20020;-74
2023/06/24 11:30:02;;;;;;;4.28;3.60;;;31.00;99.90;;;;;;5073016;28;20032;-74
2023/06/24 11:32:38;;;;;;;5.20;3.22;;;30.90;99.90;;;;;;5073260;28;20474;-74
2023/06/24 11:35:06;;;;;;;4.40;3.55;;;30.90;99.90;;;;;;5073006;28;20437;-74
2023/06/24 11:37:33;;;;;;;4.72;3.70;;;31.00;99.90;;;;;;5080362;28;20027;-74
2023/06/24 11:40:04;;;;;;;5.22;3.17;;;30.90;99.90;;;;;;5092596;28;20020;-74
2023/06/24 11:42:30;;;;;;;4.10;3.50;;;31.00;99.90;;;;;;5092995;28;20363;-74
2023/06/24 11:45:03;;;;;;;8.65;3.55;;;31.20;99.90;;;;;;5092512;28;20024;-74
2023/06/24 11:47:37;;;;;;;6.15;3.03;;;31.10;99.90;;;;;;5088005;28;20024;-74
2023/06/24 11:50:05;;;;;;;3.85;3.55;;;31.20;99.90;;;;;;5083337;28;20028;-74
2023/06/24 11:52:40;;;;;;;3.80;3.40;;;31.30;99.90;;;;;;5092546;28;20039;-74
2023/06/24 11:55:12;;;;;;;3.03;2.72;;;31.30;99.90;;;;;;5089541;28;20021;-74
2023/06/24 11:58:19;;;;;;;5.72;3.22;;;31.40;99.90;;;;;;5076654;28;20085;-72
2023/06/24 12:00:46;;;;;;;5.57;3.00;;;31.50;99.90;;;;;;5036250;28;20048;-71
2023/06/24 12:03:12;;;;;;;6.90;3.60;;;31.60;99.90;;;;;;5073719;28;20490;-71
2023/06/24 12:05:44;;;;;;;6.50;3.67;;;31.70;99.90;;;;;;5082737;28;20043;-71
2023/06/24 12:08:13;;;;;;;3.20;2.90;;;32.00;99.90;;;;;;5089443;28;20026;-71
2023/06/24 12:10:39;;;;;;;2.95;2.60;;;32.00;99.90;;;;;;5065565;28;20032;-71
2023/06/24 12:13:08;;;;;;;5.22;3.42;;;32.00;99.90;;;;;;5087777;28;20221;-71
2023/06/24 12:15:34;;;;;;;6.05;3.22;;;32.00;99.90;;;;;;5082715;28;20032;-71
2023/06/24 12:18:01;;;;;;;2.88;2.58;;;32.10;99.90;;;;;;5081895;28;20031;-71
2023/06/24 12:20:28;;;;;;;3.42;3.13;;;32.10;99.90;;;;;;5088684;28;20024;-71
2023/06/24 12:22:54;;;;;;;2.95;2.70;;;32.00;99.90;;;;;;5082522;28;20128;-71
2023/06/24 12:25:19;;;;;;;3.22;2.90;;;32.10;99.90;;;;;;5088417;28;20276;-71
2023/06/24 12:27:45;;;;;;;3.83;2.60;;;32.30;99.90;;;;;;5090712;28;20028;-71
2023/06/24 12:30:12;;;;;;;3.25;3.05;;;32.40;99.90;;;;;;5092898;28;20051;-71
2023/06/24 12:32:38;;;;;;;6.15;3.17;;;32.50;99.90;;;;;;5085842;28;20047;-71
2023/06/24 12:35:04;;;;;;;4.72;2.83;;;32.60;99.90;;;;;;5087969;28;20490;-71
2023/06/24 12:37:31;;;;;;;4.13;3.53;;;32.80;99.90;;;;;;5067075;28;20051;-71
2023/06/24 12:39:57;;;;;;;2.70;2.50;;;33.00;99.90;;;;;;5087843;28;20013;-71
2023/06/24 12:42:23;;;;;;;4.78;2.63;;;33.00;99.90;;;;;;5087358;28;20453;-71
2023/06/24 12:44:49;;;;;;;2.80;2.60;;;33.00;99.90;;;;;;5086066;28;20024;-71
2023/06/24 12:47:14;;;;;;;4.22;2.50;;;33.20;99.90;;;;;;5067513;28;20028;-71
2023/06/24 12:49:40;;;;;;;10.65;2.88;;;33.30;99.90;;;;;;5084847;28;20366;-71
2023/06/24 12:52:06;;;;;;;3.35;2.58;;;33.40;99.90;;;;;;5085388;28;20032;-71
2023/06/24 12:54:32;;;;;;;3.67;2.63;;;33.40;99.90;;;;;;5068346;28;20389;-71
2023/06/24 12:56:58;;;;;;;3.20;2.60;;;33.40;99.90;;;;;;5085885;28;20031;-71
2023/06/24 12:59:24;;;;;;;3.38;2.92;;;33.70;99.90;;;;;;5087585;28;20410;-71
2023/06/24 13:01:49;;;;;;;3.75;2.80;;;33.90;99.90;;;;;;5086233;28;20048;-71
2023/06/24 13:04:18;;;;;;;2.50;2.30;;;33.80;99.90;;;;;;5083560;28;20028;-71
2023/06/24 13:06:43;;;;;;;7.30;2.78;;;33.80;99.90;;;;;;5084742;28;20735;-71
2023/06/24 13:09:09;;;;;;;4.35;2.40;;;33.70;99.90;;;;;;5084711;28;20047;-71
2023/06/24 13:11:34;;;;;;;2.75;2.10;;;34.00;99.90;;;;;;5087511;28;20024;-71
2023/06/24 13:14:00;;;;;;;2.83;2.45;;;34.20;99.90;;;;;;5085430;28;20031;-71
2023/06/24 13:16:26;;;;;;;3.30;2.35;;;34.10;99.90;;;;;;5086992;28;20466;-71
2023/06/24 13:18:52;;;;;;;4.85;2.92;;;34.20;99.90;;;;;;5083263;28;20025;-71
2023/06/24 13:21:17;;;;;;;5.15;3.28;;;34.20;99.90;;;;;;5083809;28;20122;-71
2023/06/24 13:23:43;;;;;;;3.15;2.85;;;34.20;99.90;;;;;;5074273;28;20039;-72
2023/06/24 13:26:10;;;;;;;2.72;2.53;;;34.10;99.90;;;;;;5080651;28;20130;-72
2023/06/24 13:28:36;;;;;;;2.72;2.53;;;34.00;99.90;;;;;;5076841;28;20032;-72
2023/06/24 13:31:02;;;;;;;3.28;2.60;;;34.00;99.90;;;;;;5083445;28;20032;-72
2023/06/24 13:33:27;;;;;;;2.88;2.50;;;34.00;99.90;;;;;;5074603;28;20051;-72
2023/06/24 13:35:54;;;;;;;4.63;2.83;;;33.80;99.90;;;;;;5073568;28;20125;-72
2023/06/24 13:38:23;;;;;;;3.17;2.47;;;33.60;99.90;;;;;;5082024;28;20024;-72
2023/06/24 13:40:48;;;;;;;4.63;2.40;;;33.70;99.90;;;;;;5079058;28;20139;-71
2023/06/24 13:43:14;;;;;;;2.58;2.17;;;33.70;99.90;;;;;;5074930;28;20542;-71
2023/06/24 13:45:40;;;;;;;5.43;2.72;;;33.80;99.90;;;;;;5078116;28;20064;-71
2023/06/24 13:48:06;;;;;;;3.13;2.53;;;33.60;99.90;;;;;;5084589;28;20146;-71
2023/06/24 13:50:31;;;;;;;3.75;2.45;;;33.70;99.90;;;;;;5074313;28;20459;-72
2023/06/24 13:52:57;;;;;;;2.20;2.10;;;33.80;99.90;;;;;;5082429;28;20036;-72
2023/06/24 13:55:23;;;;;;;3.90;2.55;;;34.10;99.90;;;;;;5073339;28;20129;-72
2023/06/24 13:57:49;;;;;;;4.47;2.38;;;34.10;99.90;;;;;;5081417;28;20028;-72
2023/06/24 14:00:15;;;;;;;5.68;2.20;;;34.30;99.90;;;;;;5085289;28;20429;-72
2023/06/24 14:02:41;;;;;;;2.40;2.20;;;34.40;99.90;;;;;;5076903;28;20081;-72
2023/06/24 14:05:07;;;;;;;2.85;2.65;;;34.20;99.90;;;;;;5071725;28;20024;-72
2023/06/24 14:07:34;;;;;;;3.13;2.10;;;34.30;99.90;;;;;;5077513;28;20385;-72
2023/06/24 14:09:59;;;;;;;2.95;2.72;;;34.40;99.90;;;;;;5081442;28;20620;-72
2023/06/24 14:12:25;;;;;;;5.63;2.47;;;34.50;99.90;;;;;;5073757;28;20020;-71
2023/06/24 14:14:51;;;;;;;3.83;2.33;;;34.30;99.90;;;;;;5074338;28;20577;-72
2023/06/24 14:17:17;;;;;;;2.17;1.98;;;34.40;99.90;;;;;;5081433;28;20562;-71
2023/06/24 14:19:43;;;;;;;2.15;1.95;;;34.30;99.90;;;;;;5081608;28;20385;-71
2023/06/24 14:22:09;;;;;;;2.80;2.60;;;34.40;99.90;;;;;;5087129;28;20035;-71
2023/06/24 14:24:37;;;;;;;3.72;2.63;;;34.40;99.90;;;;;;5073747;28;20044;-72
2023/06/24 14:27:05;;;;;;;4.18;2.60;;;34.40;99.90;;;;;;5078027;28;20060;-72
2023/06/24 14:29:30;;;;;;;5.05;2.35;;;34.30;99.90;;;;;;5076987;28;20029;-71
2023/06/24 14:31:56;;;;;;;3.55;2.55;;;34.30;99.90;;;;;;5081274;28;20028;-72
2023/06/24 14:34:22;;;;;;;2.78;2.58;;;34.30;99.90;;;;;;5078647;28;20028;-72
2023/06/24 14:36:48;;;;;;;4.45;2.22;;;34.40;99.90;;;;;;5081874;28;20024;-72
2023/06/24 14:39:19;;;;;;;8.38;2.40;;;34.60;99.90;;;;;;5073084;28;20027;-72
2023/06/24 14:41:44;;;;;;;2.42;2.10;;;34.50;99.90;;;;;;5076818;28;20032;-72
2023/06/24 14:44:10;;;;;;;4.78;2.22;;;34.70;99.90;;;;;;5078603;28;20032;-72
2023/06/24 14:46:36;;;;;;;2.38;2.25;;;34.80;99.90;;;;;;5078363;28;20024;-72
2023/06/24 14:49:02;;;;;;;5.53;2.28;;;34.80;99.90;;;;;;5080458;28;20031;-72
2023/06/24 14:51:28;;;;;;;4.22;2.67;;;34.70;99.90;;;;;;5065057;28;20113;-72
2023/06/24 14:53:54;;;;;;;4.43;2.10;;;34.80;99.90;;;;;;5074682;28;20397;-72
2023/06/24 14:56:23;;;;;;;2.65;2.28;;;35.00;99.90;;;;;;5090827;28;20077;-72
2023/06/24 14:58:48;;;;;;;2.47;2.08;;;35.00;99.90;;;;;;5087347;28;20035;-72
2023/06/24 15:01:14;;;;;;;3.03;2.25;;;35.00;99.90;;;;;;5090700;28;20048;-71
2023/06/24 15:03:40;;;;;;;4.63;2.42;;;34.90;99.90;;;;;;5086332;28;20402;-72
2023/06/24 15:06:05;;;;;;;5.45;2.30;;;35.10;99.90;;;;;;5094369;28;20115;-72
2023/06/24 15:08:31;;;;;;;6.32;2.13;;;35.00;99.90;;;;;;5085891;28;20132;-72
2023/06/24 15:10:57;;;;;;;3.30;2.30;;;35.10;99.90;;;;;;5076765;28;20048;-73
2023/06/24 15:13:22;;;;;;;2.92;2.33;;;35.10;99.90;;;;;;5082152;28;20081;-72
2023/06/24 15:15:49;;;;;;;2.83;2.28;;;35.10;99.90;;;;;;5078557;28;20016;-72
2023/06/24 15:18:15;;;;;;;4.25;3.08;;;35.10;99.90;;;;;;5087149;28;20031;-72
2023/06/24 15:20:40;;;;;;;2.65;2.30;;;35.10;99.90;;;;;;5074568;28;20107;-72
2023/06/24 15:23:06;;;;;;;5.05;2.28;;;35.20;99.90;;;;;;5083990;28;20207;-72
2023/06/24 15:25:32;;;;;;;2.63;2.42;;;35.30;99.90;;;;;;5085983;28;20024;-72
2023/06/24 15:27:58;;;;;;;4.63;2.45;;;35.40;99.90;;;;;;5081540;28;20077;-72
2023/06/24 15:30:26;;;;;;;5.57;2.53;;;35.40;99.90;;;;;;5085272;28;20106;-72
2023/06/24 15:32:51;;;;;;;4.18;2.45;;;35.40;99.90;;;;;;5078485;28;20024;-72
2023/06/24 15:35:17;;;;;;;3.90;2.20;;;35.40;99.90;;;;;;5083446;28;20027;-72
2023/06/24 15:37:43;;;;;;;7.03;2.38;;;35.30;99.90;;;;;;5086325;28;20119;-72
2023/06/24 15:40:09;;;;;;;2.45;2.25;;;35.30;99.90;;;;;;5065365;28;20016;-72
2023/06/24 15:42:35;;;;;;;3.20;2.50;;;35.30;99.90;;;;;;5064002;28;20046;-73
2023/06/24 15:45:01;;;;;;;5.68;2.67;;;35.40;99.90;;;;;;5081626;28;20470;-73
2023/06/24 15:47:27;;;;;;;3.35;2.33;;;35.40;99.90;;;;;;5083191;28;20024;-73
2023/06/24 15:49:53;;;;;;;4.45;2.33;;;35.20;99.90;;;;;;5094099;28;20008;-73
2023/06/24 15:52:19;;;;;;;4.28;2.42;;;35.30;99.90;;;;;;5087508;28;20031;-73
2023/06/24 15:54:44;;;;;;;2.92;2.63;;;35.40;99.90;;;;;;5086719;28;20397;-73
2023/06/24 15:57:10;;;;;;;2.90;2.60;;;35.30;99.90;;;;;;5091522;28;20035;-74
2023/06/24 15:59:36;;;;;;;4.68;3.00;;;35.20;99.90;;;;;;5079508;28;20052;-74
2023/06/24 16:02:01;;;;;;;3.80;2.40;;;35.30;99.90;;;;;;5092423;28;20053;-74
2023/06/24 16:04:27;;;;;;;2.45;2.20;;;35.30;99.90;;;;;;5090830;28;20028;-74
2023/06/24 16:06:53;;;;;;;3.72;2.78;;;35.30;99.90;;;;;;5092321;28;20028;-73
2023/06/24 16:09:18;;;;;;;3.90;2.60;;;35.30;99.90;;;;;;5087526;28;20028;-74
2023/06/24 16:11:44;;;;;;;4.72;2.63;;;35.30;99.90;;;;;;5091667;28;20036;-74
2023/06/24 16:14:10;;;;;;;3.35;2.85;;;35.30;99.90;;;;;;5091489;28;20020;-74
2023/06/24 16:16:35;;;;;;;6.95;2.47;;;35.30;99.90;;;;;;5093786;28;20441;-74
2023/06/24 16:19:01;;;;;;;7.22;2.95;;;35.40;99.90;;;;;;5098441;28;20084;-73
2023/06/24 16:21:27;;;;;;;2.70;2.47;;;35.20;99.90;;;;;;5086684;28;20470;-74
2023/06/24 16:23:54;;;;;;;3.60;2.60;;;35.10;99.90;;;;;;5085336;28;20393;-73
2023/06/24 16:26:20;;;;;;;2.70;2.50;;;35.20;99.90;;;;;;5073492;28;20039;-74
2023/06/24 16:28:45;;;;;;;4.53;2.95;;;35.30;99.90;;;;;;5088970;28;20463;-73
2023/06/24 16:31:11;;;;;;;3.95;2.67;;;35.20;99.90;;;;;;5074204;28;20028;-74
2023/06/24 16:33:37;;;;;;;5.13;2.55;;;35.10;99.90;;;;;;5090967;28;20031;-73
2023/06/24 16:36:02;;;;;;;2.65;2.42;;;35.10;99.90;;;;;;5069497;28;20020;-73
2023/06/24 16:38:28;;;;;;;2.42;2.22;;;35.10;99.90;;;;;;5076984;28;20025;-74
2023/06/24 16:40:54;;;;;;;3.55;2.80;;;35.10;99.90;;;;;;5085918;28;20020;-74
2023/06/24 16:43:20;;;;;;;3.13;2.88;;;34.90;99.90;;;;;;5062300;28;20024;-73
2023/06/24 16:45:45;;;;;;;2.45;2.25;;;35.10;99.90;;;;;;5085115;28;20104;-73
2023/06/24 16:48:11;;;;;;;4.70;2.50;;;35.10;99.90;;;;;;5078476;28;20024;-73
2023/06/24 16:50:37;;;;;;;2.65;2.45;;;35.00;99.90;;;;;;5085687;28;20032;-74
2023/06/24 16:53:02;;;;;;;4.95;2.58;;;34.80;99.90;;;;;;5081870;28;20023;-74
2023/06/24 16:55:28;;;;;;;4.90;4.43;;;34.80;99.90;;;;;;5083260;28;20366;-74
2023/06/24 16:57:54;;;;;;;4.85;3.17;;;34.70;99.90;;;;;;5088530;28;20028;-73
2023/06/24 17:00:20;;;;;;;2.42;2.22;;;34.70;99.90;;;;;;5079502;28;20055;-73
2023/06/24 17:02:45;;;;;;;2.97;2.70;;;34.80;99.90;;;;;;5093242;28;20533;-73
2023/06/24 17:05:13;;;;;;;3.30;2.97;;;34.90;99.90;;;;;;5085544;28;20109;-73
2023/06/24 17:07:38;;;;;;;2.80;2.60;;;34.90;99.90;;;;;;5081016;28;20081;-74
2023/06/24 17:10:04;;;;;;;2.20;2.08;;;34.90;99.90;;;;;;5059903;28;20028;-73
2023/06/24 17:12:30;;;;;;;3.70;2.67;;;34.80;99.90;;;;;;5081432;28;20029;-73
2023/06/24 17:14:56;;;;;;;4.15;2.60;;;34.90;99.90;;;;;;5076723;28;20379;-73
2023/06/24 17:17:21;;;;;;;4.00;2.22;;;34.70;99.90;;;;;;5081958;28;20021;-73
2023/06/24 17:19:47;;;;;;;3.30;3.00;;;34.70;99.90;;;;;;5082988;28;20431;-74
2023/06/24 17:22:13;;;;;;;4.00;2.20;;;34.50;99.90;;;;;;5081395;28;20026;-73
2023/06/24 17:24:38;;;;;;;7.13;2.55;;;34.40;99.90;;;;;;5089254;28;20028;-73
2023/06/24 17:27:04;;;;;;;4.05;2.30;;;34.30;99.90;;;;;;5086073;28;20031;-73
2023/06/24 17:29:30;;;;;;;3.78;2.50;;;34.20;99.90;;;;;;5089044;28;20032;-73
2023/06/24 17:31:56;;;;;;;4.93;2.17;;;34.00;99.90;;;;;;5084452;28;20523;-73
2023/06/24 17:34:21;;;;;;;4.35;2.45;;;33.80;99.90;;;;;;5089429;28;20032;-73
2023/06/24 17:36:47;;;;;;;2.47;2.38;;;33.40;99.90;;;;;;5084720;28;20109;-73
2023/06/24 17:39:13;;;;;;;4.57;3.13;;;33.10;99.90;;;;;;5082264;28;20397;-73
2023/06/24 17:41:39;;;;;;;2.35;2.15;;;32.80;99.90;;;;;;5084285;28;20028;-73
2023/06/24 17:44:04;;;;;;;4.05;2.50;;;32.60;99.90;;;;;;5084447;28;20028;-73
2023/06/24 17:46:30;;;;;;;2.78;2.50;;;32.40;99.90;;;;;;5084009;28;20103;-73
2023/06/24 17:48:56;;;;;;;9.88;2.60;;;32.20;99.90;;;;;;5084391;28;20030;-73
2023/06/24 17:51:22;;;;;;;2.63;2.35;;;32.10;99.90;;;;;;5087748;28;20029;-73
2023/06/24 17:53:47;;;;;;;3.78;2.00;;;31.90;99.90;;;;;;5083700;28;20132;-73
2023/06/24 17:56:13;;;;;;;2.10;2.00;;;31.80;99.90;;;;;;5086146;28;20073;-73
2023/06/24 17:58:39;;;;;;;3.80;1.88;;;31.70;99.90;;;;;;5086427;28;20023;-74
2023/06/24 18:01:04;;;;;;;3.25;1.90;;;31.60;99.90;;;;;;5087441;28;20052;-74
2023/06/24 18:03:31;;;;;;;2.10;1.90;;;31.50;99.90;;;;;;5084725;28;20052;-74
2023/06/24 18:05:57;;;;;;;2.55;2.10;;;31.50;99.90;;;;;;5094957;28;20059;-74
2023/06/24 18:08:23;;;;;;;2.40;2.20;;;31.40;99.90;;;;;;5086154;28;20051;-74
2023/06/24 18:10:48;;;;;;;3.60;2.13;;;31.40;99.90;;;;;;5087339;28;20013;-74
2023/06/24 18:13:14;;;;;;;2.90;2.63;;;31.30;99.90;;;;;;5086815;28;20059;-74
2023/06/24 18:15:40;;;;;;;2.40;2.22;;;31.20;99.90;;;;;;5079707;28;20204;-74
2023/06/24 18:18:05;;;;;;;2.38;2.17;;;31.10;99.90;;;;;;5078332;28;20024;-74
2023/06/24 18:20:31;;;;;;;7.50;1.95;;;31.00;99.90;;;;;;5079995;28;20108;-74
2023/06/24 18:22:57;;;;;;;2.40;2.20;;;30.90;99.90;;;;;;5085508;28;20554;-74
2023/06/24 18:25:23;;;;;;;2.30;2.10;;;30.80;99.90;;;;;;5079299;28;20036;-74
2023/06/24 18:27:48;;;;;;;4.40;2.08;;;30.70;99.90;;;;;;5066384;28;20024;-74
2023/06/24 18:30:14;;;;;;;5.13;1.92;;;30.60;99.90;;;;;;5083134;28;20029;-74
2023/06/24 18:32:40;;;;;;;3.97;2.00;;;30.50;99.90;;;;;;5086980;28;20033;-74
2023/06/24 18:35:06;;;;;;;2.45;2.25;;;30.50;99.90;;;;;;5080726;28;20021;-74
2023/06/24 18:37:31;;;;;;;3.10;1.80;;;30.30;99.90;;;;;;5079555;28;20027;-74
2023/06/24 18:39:57;;;;;;;7.75;3.60;;;30.30;99.90;;;;;;5085011;28;20390;-74
2023/06/24 18:42:23;;;;;;;3.28;2.97;;;30.20;99.90;;;;;;5079665;28;20024;-74
2023/06/24 18:44:49;;;;;;;2.97;2.72;;;30.10;99.90;;;;;;5077642;28;20025;-74
2023/06/24 18:47:15;;;;;;;2.65;2.42;;;30.00;99.90;;;;;;5083531;28;20036;-74
2023/06/24 18:49:41;;;;;;;4.70;2.72;;;29.90;99.90;;;;;;5077600;28;20032;-74
2023/06/24 18:52:08;;;;;;;6.28;3.13;;;29.80;99.90;;;;;;5081902;28;20162;-74
2023/06/24 18:54:34;;;;;;;7.50;2.88;;;29.60;99.90;;;;;;5080395;28;20143;-74
2023/06/24 18:57:03;;;;;;;3.78;3.15;;;29.60;99.90;;;;;;5084390;28;20020;-74
2023/06/24 18:59:31;;;;;;;4.15;3.13;;;29.50;99.90;;;;;;5083732;28;20024;-74
2023/06/24 19:01:57;;;;;;;5.68;2.75;;;29.40;99.90;;;;;;5087026;28;20055;-74
2023/06/24 19:04:23;;;;;;;4.05;2.63;;;29.30;99.90;;;;;;5083558;28;20016;-74
2023/06/24 19:06:49;;;;;;;4.45;2.78;;;29.30;99.90;;;;;;5085560;28;20457;-74
2023/06/24 19:09:14;;;;;;;3.53;3.22;;;29.10;99.90;;;;;;5067479;28;20021;-74
2023/06/24 19:11:40;;;;;;;2.83;2.40;;;29.00;99.90;;;;;;5084489;28;20488;-74
2023/06/24 19:14:06;;;;;;;8.60;2.97;;;28.90;99.90;;;;;;5083598;28;20559;-74
2023/06/24 19:16:31;;;;;;;5.32;2.67;;;28.90;99.90;;;;;;5083878;28;20096;-74
2023/06/24 19:18:59;;;;;;;2.33;2.13;;;28.80;99.90;;;;;;5084871;28;20108;-74
2023/06/24 19:21:25;;;;;;;2.75;2.17;;;28.80;99.90;;;;;;5082893;28;20366;-74
2023/06/24 19:23:50;;;;;;;2.50;2.30;;;28.60;99.90;;;;;;5083667;28;20032;-74
2023/06/24 19:26:16;;;;;;;2.33;2.22;;;28.60;99.90;;;;;;5082184;28;20032;-74
2023/06/24 19:28:42;;;;;;;4.70;2.70;;;28.60;99.90;;;;;;5081533;28;20045;-74
2023/06/24 19:31:07;;;;;;;4.90;2.20;;;28.50;99.90;;;;;;5083693;28;20028;-74
2023/06/24 19:33:33;;;;;;;6.78;2.42;;;28.30;99.90;;;;;;5088250;28;20024;-74
2023/06/24 19:35:59;;;;;;;4.13;2.50;;;28.30;99.90;;;;;;5092712;28;20473;-74
2023/06/24 19:38:24;;;;;;;4.22;2.65;;;28.20;99.90;;;;;;5087730;28;20032;-74
2023/06/24 19:40:50;;;;;;;3.97;2.45;;;28.10;99.90;;;;;;5084002;28;20024;-74
2023/06/24 19:43:16;;;;;;;5.32;2.63;;;28.00;99.90;;;;;;5083195;28;20490;-74
2023/06/24 19:45:42;;;;;;;5.88;3.35;;;28.00;99.90;;;;;;5090029;28;20061;-74
2023/06/24 19:48:08;;;;;;;4.13;3.08;;;27.90;99.90;;;;;;5085361;28;20028;-74
2023/06/24 19:50:33;;;;;;;2.03;1.92;;;27.70;99.90;;;;;;5064938;28;20029;-74
2023/06/24 19:52:59;;;;;;;6.82;1.70;;;27.80;99.90;;;;;;5090036;28;20086;-74
2023/06/24 19:55:25;;;;;;;4.45;2.45;;;27.70;99.90;;;;;;5090884;28;20425;-74
2023/06/24 19:57:50;;;;;;;5.68;2.38;;;27.70;99.90;;;;;;5088461;28;20020;-74
2023/06/24 20:00:16;;;;;;;4.35;2.03;;;27.70;99.90;;;;;;5085988;28;20371;-74
2023/06/24 20:02:43;;;;;;;6.43;2.35;;;27.60;99.90;;;;;;5091617;28;20473;-74
2023/06/24 20:05:09;;;;;;;3.08;2.60;;;27.60;99.90;;;;;;5092638;28;20462;-74
2023/06/24 20:07:34;;;;;;;6.47;3.45;;;27.50;99.90;;;;;;5088372;28;20013;-74
2023/06/24 20:10:00;;;;;;;2.80;2.40;;;27.20;99.90;;;;;;5083379;28;20032;-74
2023/06/24 20:12:26;;;;;;;2.35;2.22;;;27.20;99.90;;;;;;5084992;28;20024;-74
2023/06/24 20:14:52;;;;;;;5.00;3.00;;;27.10;99.90;;;;;;5086936;28;20385;-74
2023/06/24 20:17:17;;;;;;;2.35;2.22;;;27.10;99.90;;;;;;5080013;28;20478;-74
2023/06/24 20:19:43;;;;;;;2.45;2.25;;;27.00;99.90;;;;;;5080972;28;20103;-74
2023/06/24 20:22:09;;;;;;;4.90;2.78;;;26.90;99.90;;;;;;5084837;28;20036;-74
2023/06/24 20:24:34;;;;;;;3.35;2.00;;;26.80;99.90;;;;;;5078214;28;20032;-74
2023/06/24 20:27:00;;;;;;;3.50;2.10;;;26.80;1.00;;;;;;5079847;28;20047;-74
2023/06/24 20:29:27;;;;;;;3.08;2.33;;;26.70;1.00;;;;;;5087262;28;20102;-74
2023/06/24 20:31:52;;;;;;;3.92;1.88;;;26.70;1.00;;;;;;5082037;28;20477;-74
2023/06/24 20:34:18;;;;;;;4.65;1.92;;;26.60;1.00;;;;;;5081066;28;20021;-74
2023/06/24 20:36:44;;;;;;;2.38;2.00;;;26.50;1.00;;;;;;5086328;28;20933;-74
2023/06/24 20:39:10;;;;;;;4.85;2.13;;;26.40;1.00;;;;;;5079947;28;20103;-74
2023/06/24 20:41:35;;;;;;;1.90;1.75;;;26.30;1.00;;;;;;5081723;28;20065;-74
2023/06/24 20:44:01;;;;;;;2.08;1.88;;;26.30;1.00;;;;;;5079454;28;20037;-74
2023/06/24 20:46:27;;;;;;;2.22;1.98;;;26.30;1.00;;;;;;5081871;28;20028;-74
2023/06/24 20:48:54;;;;;;;3.08;1.90;;;26.30;1.00;;;;;;5080448;28;20059;-74
2023/06/24 20:51:20;;;;;;;3.38;1.70;;;26.40;1.00;;;;;;5086827;28;20017;-74
2023/06/24 20:53:46;;;;;;;2.55;1.90;;;26.30;1.00;;;;;;5068428;28;20457;-74
2023/06/24 20:56:12;;;;;;;2.45;1.85;;;26.20;1.00;;;;;;5081327;28;20045;-74
2023/06/24 20:58:38;;;;;;;2.00;1.90;;;26.20;1.00;;;;;;5076572;28;20055;-74
2023/06/24 21:01:11;;;;;;;2.22;2.03;;;26.20;1.00;;;;;;5066693;28;20040;-74
2023/06/24 21:03:38;;;;;;;3.15;2.10;;;26.10;1.00;;;;;;5083333;28;20020;-74
2023/06/24 21:06:04;;;;;;;8.35;1.90;;;26.00;1.00;;;;;;5077206;28;20078;-74
2023/06/24 21:08:30;;;;;;;2.38;1.92;;;25.90;1.00;;;;;;5078996;28;20028;-74
2023/06/24 21:10:59;;;;;;;5.68;1.75;;;25.80;1.00;;;;;;5078623;28;20046;-74
2023/06/24 21:13:26;;;;;;;7.40;2.22;;;25.80;1.00;;;;;;5082734;28;20028;-74
2023/06/24 21:15:51;;;;;;;2.17;1.95;;;25.70;1.00;;;;;;5080288;28;20480;-74
2023/06/24 21:18:17;;;;;;;2.40;2.20;;;25.60;6.10;;;;;;5084884;28;20154;-74
2023/06/24 21:20:43;;;;;;;2.25;2.05;;;25.60;9.90;;;;;;5083890;28;20501;-74
2023/06/24 21:23:09;;;;;;;2.10;1.75;;;25.60;4.80;;;;;;5080880;28;20036;-74
2023/06/24 21:25:34;;;;;;;2.65;2.15;;;25.50;24.10;;;;;;5079677;28;20028;-74
2023/06/24 21:28:00;;;;;;;1.88;1.77;;;25.40;38.80;;;;;;5083852;28;20020;-74
2023/06/24 21:30:26;;;;;;;3.22;1.80;;;25.40;39.10;;;;;;5079663;28;20054;-74
2023/06/24 21:32:52;;;;;;;1.73;1.58;;;25.30;43.70;;;;;;5061667;28;20151;-74
2023/06/24 21:35:17;;;;;;;1.85;1.58;;;25.30;34.50;;;;;;5082762;28;20035;-74
2023/06/24 21:37:43;;;;;;;2.28;2.08;;;25.30;24.00;;;;;;5076656;28;20028;-74
2023/06/24 21:40:09;;;;;;;3.75;2.00;;;25.20;76.10;;;;;;5083546;28;20024;-74
2023/06/24 21:42:35;;;;;;;2.22;2.03;;;25.20;60.90;;;;;;5062917;28;20101;-74
2023/06/24 21:45:01;;;;;;;3.67;1.90;;;25.20;56.60;;;;;;5077993;28;20051;-74
2023/06/24 21:47:26;;;;;;;5.57;1.95;;;25.20;39.20;;;;;;5081918;28;20387;-74
2023/06/24 21:49:52;;;;;;;3.08;1.90;;;25.30;45.50;;;;;;5079873;28;20024;-74
2023/06/24 21:52:18;;;;;;;1.58;1.45;;;25.30;42.80;;;;;;5077273;28;20037;-74
2023/06/24 21:54:47;;;;;;;2.58;2.05;;;25.20;73.60;;;;;;5081040;28;20020;-74
2023/06/24 21:57:13;;;;;;;2.58;1.77;;;25.30;41.10;;;;;;5084962;28;20020;-74
2023/06/24 21:59:39;;;;;;;3.72;1.80;;;25.10;48.20;;;;;;5082958;28;20024;-74
2023/06/24 22:02:05;;;;;;;3.63;1.80;;;25.10;39.10;;;;;;5086466;28;20040;-74
2023/06/24 22:04:30;;;;;;;2.00;1.80;;;25.10;41.50;;;;;;5058876;28;20036;-74
2023/06/24 22:06:56;;;;;;;1.98;1.52;;;25.10;73.40;;;;;;5080479;28;20030;-74
2023/06/24 22:09:22;;;;;;;1.98;1.73;;;25.00;78.80;;;;;;5083731;28;20028;-74
2023/06/24 22:11:48;;;;;;;2.92;1.50;;;25.10;70.70;;;;;;5062848;28;20112;-74
2023/06/24 22:14:13;;;;;;;2.95;2.15;;;25.20;47.10;;;;;;5079293;28;20474;-74
2023/06/24 22:16:41;;;;;;;1.80;1.70;;;25.10;81.60;;;;;;5079569;28;20032;-74
2023/06/24 22:19:10;;;;;;;1.88;1.77;;;25.00;99.90;;;;;;5070522;28;20024;-74
2023/06/24 22:21:36;;;;;;;2.95;1.95;;;24.80;99.90;;;;;;5083600;28;20067;-74
2023/06/24 22:24:02;;;;;;;1.80;1.70;;;24.80;99.90;;;;;;5083823;28;20491;-74
2023/06/24 22:26:28;;;;;;;2.70;1.85;;;24.90;99.90;;;;;;5083782;28;20032;-74
2023/06/24 22:28:54;;;;;;;3.70;2.25;;;24.80;99.90;;;;;;5082846;28;20047;-74
2023/06/24 22:31:19;;;;;;;2.58;1.50;;;24.80;99.90;;;;;;5081948;28;20047;-74
2023/06/24 22:33:45;;;;;;;2.58;1.67;;;24.70;99.90;;;;;;5078770;28;20023;-74
2023/06/24 22:36:11;;;;;;;3.80;1.52;;;24.80;99.90;;;;;;5079267;28;20090;-74
2023/06/24 22:38:36;;;;;;;1.83;1.73;;;24.70;99.90;;;;;;5085588;28;20048;-74
2023/06/24 22:41:03;;;;;;;2.22;1.83;;;24.70;99.90;;;;;;5083882;28;20059;-74
2023/06/24 22:43:29;;;;;;;2.03;1.75;;;24.70;99.90;;;;;;5078039;28;20073;-74
2023/06/24 22:45:54;;;;;;;1.48;1.40;;;24.80;99.90;;;;;;5079676;28;20028;-74